Tiempo atmosférico en la estación meteorológica de Puerto De San Isidro, León (1510 m.)



Fecha
DESCASC
Temp. máxima en grados centígrados (hora)
DESCASC
Temp. mínima en grados centígrados (hora)
DESCASC
Temp. media en grados centígrados
DESCASC
Racha de viento máxima en m/sg (hora)
DESCASC
Velocidad máxima media en intervalos de 10 minutos(hora)
DESCASC
Precipitaciones diarias en mm
DESCASC
Precipitaciones de 00:00 a 06:00 en mm
DESCASC
Precipitaciones de 06:00 a 12:00 en mm
DESCASC
Precipitaciones de 12:00 a 18:00 en mm
DESCASC
Precipitaciones de 18:00 a 24:00 en mm
DESCASC
05-04-2020 9.4 (15:10) 5.1 (09:30) 7.2 20 (00:20) 8.89 (00:20) 12.4 0 0 3.4 9
04-04-2020 11.7 (15:10) -1 (07:50) 5.3 17.5 (16:40) 8.89 (15:20) 0 0 0 0 0
03-04-2020 12.1 (17:10) -6.1 (08:00) 3 11.11 (15:50) 5.83 (12:50) 0 0 0 0 0
02-04-2020 4.2 (16:30) 0.2 (00:00) 2.2 9.44 (05:50) 5 (18:50) 4 0.2 3.4 0.4 0
01-04-2020 6.6 (15:40) 1.7 (00:00) 4.1 11.94 (03:10) 7.78 (03:20) 5 3.8 0.6 0 0.6
31-03-2020 5.7 (13:50) -6 (-00:0) -0.2 13.89 (15:40) 8.33 (20:40) 5.4 0 0 3.6 1.8
30-03-2020 -0.9 (00:00) -5.2 (-00:0) -3 11.67 (04:50) 5 (10:10) 0 0 0 0 0
29-03-2020 7 (10:40) -2.2 (-00:0) 2.4 9.17 (15:00) 7.5 (14:00) 0 0 0 0 0
28-03-2020 9.6 (13:00) -4.6 (-00:0) 2.5 9.17 (13:20) 5.83 (17:50) 0 0 0 0 0
27-03-2020 8.5 (15:20) -8.4 (-00:0) 0.1 10.83 (12:00) 7.22 (12:00) 0 0 0 0 0
26-03-2020 4.1 (15:40) -2.7 (-00:0) 0.7 13.33 (17:30) 8.33 (13:00) 0 0 0 0 0
25-03-2020 10 (14:20) 0.1 (00:00) 5.1 13.33 (16:20) 6.67 (19:40) 0.2 0 0.2 0 0
24-03-2020 13.4 (15:00) 1.1 (00:00) 7.2 11.11 (12:30) 5.56 (12:30) 0 0 0 0 0
23-03-2020 10.7 (13:50) -2.4 (-00:0) 4.1 8.89 (15:10) 6.94 (15:10) 0 0 0 0 0
22-03-2020 9.9 (12:30) -1 (23:40) 4.4 9.17 (14:10) 5.83 (15:30) 0 0 0 0 0
21-03-2020 12.2 (14:00) 3.7 (00:00) 7.9 11.94 (05:00) 7.22 (04:20) 1.4 0 0 1 0.4
20-03-2020 7.9 (17:00) 3.3 (00:00) 5.6 11.11 (06:30) 5.83 (07:50) 1 0 0 0 1
19-03-2020 14.4 (13:40) 1.1 (00:00) 7.7 9.17 (16:40) 4.44 (11:10) 0.2 0 0 0.2 0
18-03-2020 14.9 (14:20) 0.9 (00:00) 7.9 6.11 (12:40) 3.89 (12:50) 0 0 0 0 0
17-03-2020 9.9 (16:10) -4.1 (-00:0) 2.9 8.89 (18:40) 5.56 (05:00) 1.6 0 1.6 0 0
16-03-2020 -0.5 (14:30) -3.4 (-00:0) -2 24.72 (07:20) 10.56 (07:10) 0.2 0.2 0 0 0
15-03-2020 11.9 (14:30) -3.4 (-00:0) 4.2 -- (--) 9.17 (20:00) 0.2 0 0 0.2 0
14-03-2020 12.2 (16:30) -1.4 (-00:0) 5.4 8.06 (14:40) 5.28 (17:50) 0 0 0 0 0
13-03-2020 4.5 (16:40) -0.6 (23:10) 1.9 11.39 (17:20) 8.61 (17:10) 0 0 0 0 0
12-03-2020 9.9 (00:00) 2.2 (00:00) 6 9.17 (12:20) 6.94 (12:20) 0 0 0 0 0
11-03-2020 17.9 (15:30) 1.7 (00:00) 9.8 11.11 (12:40) 6.39 (12:00) 0 0 0 0 0

Gráficas

Temp. máximas Temp. mínimas Temp. medias Precipitaciones Rachas de viento máximas Velocidades máximas media en intervalos de 10 minutos

Datos horarios

Fecha y hora oficial Temperatura (ºC) Velocidad del viento (km/h) Dirección del viento Racha (km/h) Dirección de racha Precipitación (mm) Presión (hPa) Tendencia (hPa) Humedad (%)
2020-04-09 23:00:00 8.7 15 Este 25 Este 0.2 852 1.1 84
2020-04-09 22:00:00 9 8 Sur 20 Sur 0.2 851.5 0.9 80
2020-04-09 21:00:00 9.6 6 Este 26 Sur 0 851 0.5 78
2020-04-09 20:00:00 10.4 12 Sur 34 Sudoeste 0 850.9 0.6 69
2020-04-09 19:00:00 11.3 11 Sur 39 Sur 0 850.6 0 65
2020-04-09 18:00:00 11.5 10 Sur 31 Sudeste 0 850.5 -0.6 67
2020-04-09 17:00:00 12.4 21 Este 36 Este 0 850.3 -1.4 69
2020-04-09 16:00:00 12.6 15 Sudeste 33 Sudeste 0 850.6 -1.2 67
2020-04-09 15:00:00 12 15 Este 28 Sudeste 0 851.1 -0.9 62
2020-04-09 14:00:00 12.4 11 Sur 29 Sur 0 851.7 -0.3 59
2020-04-09 13:00:00 13.6 10 Sur -- -- 0 851.8 -0.3 49
2020-04-09 12:00:00 12 19 Este 36 Este 0 852 0 60
2020-04-09 11:00:00 12.8 11 Sudeste 20 Este 0 852 0 59
2020-04-09 10:00:00 9.4 12 Este 15 Este 0 852.1 0.1 83
2020-04-09 09:00:00 6.6 7 Este 12 Sudeste 0 852 -0.1 88
2020-04-09 08:00:00 4.6 8 Este 12 Este 0 852 -0.3 90
2020-04-09 07:00:00 4.3 6 Este 9 Nordeste 0 852 -0.6 89
2020-04-09 06:00:00 4.6 6 Sudeste 10 Este 0 852.1 -0.8 88
2020-04-09 05:00:00 5 4 Este 12 Este 0 852.3 -0.9 88
2020-04-09 04:00:00 5.1 7 Este 12 Nordeste 0 852.6 -1 86
2020-04-09 03:00:00 4.2 3 Este 9 Sudeste 0 852.9 -1.1 87
2020-04-09 02:00:00 3.1 3 Sudeste 8 Sudeste 0 853.2 -0.8 85
2020-04-09 01:00:00 3.7 2 Sur 7 Sudeste 0 853.6 -0.3 83
2020-04-09 00:00:00 3.9 2 Noroeste 6 Este 0 854 0.5 86
2020-04-08 23:00:00 5.7 3 Sudoeste 8 Noroeste 0 854 0.8 86
2020-04-08 22:00:00 7.4 3 Noroeste 14 Oeste 0 853.9 0.8 83
2020-04-08 21:00:00 9.6 9 Oeste 14 Oeste 0 853.5 0.4 80
2020-04-08 20:00:00 11.6 12 Oeste 21 Oeste 0 853.2 -0.2 73
2020-04-08 19:00:00 15.1 8 Oeste 28 Oeste 0 853.1 -0.7 48
2020-04-08 18:00:00 13.9 9 Sur 27 Sur 0 853.1 -1 48
2020-04-08 17:00:00 14.5 9 Sur 20 Sudeste 0 853.4 -1 49
2020-04-08 16:00:00 14.4 6 Sudoeste 26 Sudeste 0 853.8 -1 48
2020-04-08 15:00:00 12.3 8 Sur 22 Sudeste 0 854.1 -0.8 57
2020-04-08 14:00:00 12.2 6 Este -- -- 0.2 854.4 -0.6 64
2020-04-08 13:00:00 10.9 8 Sur 21 Este 0 854.8 -0.2 68
2020-04-08 12:00:00 10.4 8 Este 13 Este 0 854.9 0 73
2020-04-08 11:00:00 9.4 7 Este 11 Este 0 855 0.3 77
2020-04-08 10:00:00 9.5 8 Este 12 Este 0 855 0.3 79
2020-04-08 09:00:00 4.5 2 Sudeste -- -- 0 854.9 0.3 91
2020-04-08 08:00:00 2.9 -- -- -- -- 0 854.7 -0.3 91
2020-04-08 07:00:00 3.9 4 Sudeste 12 Sudeste 0 854.7 -0.4 90
2020-04-08 06:00:00 5.6 2 Sur 9 Nordeste 0 854.6 -0.8 88
2020-04-08 05:00:00 5.7 4 Este 9 Este 0 855 -0.6 90
2020-04-08 04:00:00 5.2 4 Este 17 Nordeste 0 855.1 -0.7 90
2020-04-08 03:00:00 5.5 4 Sudeste 9 Sur 0 855.4 -0.3 90
2020-04-08 02:00:00 5.4 4 Este 9 Este 0 855.6 0 88
2020-04-08 01:00:00 5.9 6 Sudeste 13 Sudeste 0 855.8 0.7 87
2020-04-08 00:00:00 6.8 7 Sudeste 9 Sudeste 0 855.7 1 83
2020-04-07 23:00:00 6.9 3 Norte 8 Sudeste 0 855.6 1.1 87
2020-04-07 22:00:00 7.1 4 Oeste 25 Oeste 0 855.1 1 88
2020-04-07 21:00:00 8 12 Oeste 18 Oeste 0 854.7 0.9 90
2020-04-07 20:00:00 9 9 Este 22 Este 0 854.5 0.7 86
2020-04-07 19:00:00 9.5 13 Este 20 Este 0 854.1 0.2 81
2020-04-07 18:00:00 10.4 10 Sudeste 23 Sudeste 0 853.8 -0.2 72
2020-04-07 17:00:00 10.1 6 Sudeste 21 Sur 0.2 853.8 -0.5 75
2020-04-07 16:00:00 10.7 12 Sur 24 Sur 0 853.9 -0.3 68
2020-04-07 15:00:00 10.3 10 Sudeste 23 Sudeste 0 854 -0.1 70
2020-04-07 14:00:00 9.6 10 Sudeste 33 Este 0 854.3 0.3 68
2020-04-07 13:00:00 10.2 10 Sur 27 Sudeste 0 854.2 0.6 71
2020-04-07 12:00:00 8.6 10 Sudeste 28 Este 0 854.1 0.6 72
2020-04-07 11:00:00 7.6 10 Este 25 Este 0 854 1 84
2020-04-07 10:00:00 5.9 18 Este 24 Este 0 853.6 0.8 93
2020-04-07 09:00:00 5.3 17 Este 26 Este 0 853.5 0.7 93
2020-04-07 08:00:00 4.8 15 Este 30 Este 0 853 0.2 93
2020-04-07 07:00:00 4.7 9 Nordeste 35 Este 0 852.8 -0.2 93
2020-04-07 06:00:00 5 21 Este 27 Este 0 852.8 -0.5 93
2020-04-07 05:00:00 5 15 Este 26 Este 0 852.8 -0.4 91
2020-04-07 04:00:00 5 18 Este 25 Este 0 853 -0.2 91
2020-04-07 03:00:00 5 10 Este 30 Este 0 853.3 0.1 89
2020-04-07 02:00:00 4.8 13 Este 21 Este 0 853.2 -0.1 90
2020-04-07 01:00:00 5 11 Este 21 Nordeste 0 853.2 0 91
2020-04-07 00:00:00 4.6 12 Este 19 Este 0 853.2 0.6 92
2020-04-06 23:00:00 5 12 Este 16 Este 0.2 853.3 1 92
2020-04-06 22:00:00 5.2 5 Este 13 Sudeste 0 853.2 1.1 92
2020-04-06 21:00:00 5.4 10 Este 18 Este 0 852.6 0.9 91
2020-04-06 20:00:00 5.7 12 Este 16 Este 1 852.3 0.5 91
2020-04-06 19:00:00 5.7 6 Oeste 17 Oeste 2.2 852.1 0.2 85
2020-04-06 18:00:00 6.6 5 Noroeste 19 Noroeste 2 851.7 0 81
2020-04-06 17:00:00 6.8 6 Oeste 15 Oeste 1.6 851.8 0.3 87
2020-04-06 16:00:00 5.7 11 Oeste 17 Oeste 2.2 851.9 0.7 91
2020-04-06 15:00:00 6.2 15 Oeste 19 Noroeste 0 851.7 0.7 88
2020-04-06 14:00:00 6 6 Oeste 16 Nordeste 1.2 851.5 0.9 89
2020-04-06 13:00:00 5.6 8 Nordeste 15 Noroeste 0 851.2 1.5 87
2020-04-06 12:00:00 4.6 9 Oeste 23 Oeste 0.2 851 2.1 94
2020-04-06 11:00:00 4.4 17 Oeste 26 Oeste 0 850.6 2.3 94
2020-04-06 10:00:00 4.4 21 Oeste 27 Oeste 0.2 849.7 1.7 94
2020-04-06 09:00:00 5.3 8 Oeste 15 Oeste 0.2 848.9 1.3 93
2020-04-06 08:00:00 6.1 10 Este 16 Este 0 848.3 0.6 93
2020-04-06 07:00:00 6.1 7 Este 18 Sudeste 0 848 0.3 93
2020-04-06 06:00:00 6.2 14 Este 20 Este 0 847.6 -0.2 92
2020-04-06 05:00:00 6.2 10 Este 16 Sudeste 0 847.7 -0.3 92
2020-04-06 04:00:00 6.1 5 Este 18 Este 0.2 847.7 -0.1 92
2020-04-06 03:00:00 6.1 10 Este 16 Este 0.2 847.8 0.4 92
2020-04-06 02:00:00 6.2 10 Este 19 Sudeste 0 848 0.5 89
2020-04-06 01:00:00 6 14 Este 29 Este 0 847.8 0.8 91
2020-04-06 00:00:00 5.9 20 Este 32 Este 0.2 847.4 0.6 90
2020-04-05 23:00:00 6.8 17 Este 42 Sur 0 847.5 1.5 79
2020-04-05 22:00:00 7 16 Sudoeste 47 Sudoeste 0 847 1.3 79
2020-04-05 21:00:00 7.3 18 Sur 44 Sur 1.2 846.8 1.2 78
2020-04-05 20:00:00 7.6 18 Sur 50 Sur 3.4 846 -0.2 79
2020-04-05 19:00:00 7.5 20 Sur 51 Sur 4.2 845.7 0.1 78
2020-04-05 18:00:00 7.8 19 Sur 45 Sudoeste 2.2 845.6 -0.3 80
2020-04-05 17:00:00 8.2 24 Sur 63 Sur 1 846.2 0.9 76
2020-04-05 16:00:00 8.8 30 Sur 66 Sur 0.2 845.6 -0.2 74
2020-04-05 15:00:00 8.5 22 Sur 54 Sur 0 845.9 0 78
2020-04-05 14:00:00 6 24 Sur 55 Sur 0 845.3 -0.8 88
2020-04-05 13:00:00 5.4 13 Sur 58 Sudoeste 0 845.8 -0.5 89
2020-04-05 12:00:00 5.7 19 Sur 60 Sur 0 845.9 0.3 85
2020-04-05 11:00:00 5.4 22 Sur 60 Sur 0 846.1 0.5 83
2020-04-05 10:00:00 5.4 21 Sur 54 Sur 0 846.3 1.5 82
2020-04-05 09:00:00 5.4 22 Sur 63 Sur 0 845.6 1 81
2020-04-05 08:00:00 5.7 23 Sur 62 Sudeste 0 845.6 1.1 78
2020-04-05 07:00:00 6.1 22 Sur 61 Sur 0 844.8 0.3 73
2020-04-05 06:00:00 6.2 21 Sur 62 Sur 0 844.6 -0.3 67
2020-04-05 05:00:00 6.3 21 Sur 71 Sur 0 844.5 -0.6 67
2020-04-05 04:00:00 6.6 23 Sur 69 Sur 0 844.5 -0.6 65
2020-04-05 03:00:00 7 24 Sur 72 Sur 0 844.9 -0.1 61
2020-04-05 02:00:00 7.4 24 Sur 71 Sur 0 845.1 0 55
2020-04-05 01:00:00 7.5 26 Sur 72 Sudoeste 0 845.1 -0.4 54
2020-04-05 00:00:00 7.5 27 Sur 63 Sur 0 845 -0.3 57
2020-04-04 23:00:00 7.8 15 Sudeste 45 Sudeste 0 845.1 -0.2 54
2020-04-04 22:00:00 8 16 Sudeste 62 Este 0 845.5 0.2 50
2020-04-04 21:00:00 8.6 8 Nordeste 37 Este 0 845.3 0.1 45
2020-04-04 20:00:00 9.1 13 Sudoeste 39 Sur 0 845.3 0 53
2020-04-04 19:00:00 9.4 10 Sudeste 38 Sudoeste 0 845.3 -0.5 50
2020-04-04 18:00:00 11.1 12 Sur 47 Sudeste 0 845.2 -0.9 34
2020-04-04 17:00:00 11.1 19 Sudeste 63 Este 0 845.3 -0.8 33
2020-04-04 16:00:00 11.3 28 Sudeste 61 Este 0 845.8 -1.1 34
2020-04-04 15:00:00 11.2 19 Sudeste 62 Sudeste 0 846.1 -0.9 36
2020-04-04 14:00:00 11 19 Sudeste 58 Sudeste 0 846.1 -0.9 42
2020-04-04 13:00:00 8.9 19 Sur 55 Sur 0 846.9 0.2 46
2020-04-04 12:00:00 8.2 20 Sudeste 44 Sur 0 847 0.4 48
2020-04-04 11:00:00 7.4 12 Este 36 Sudeste 0 847 0.4 59
2020-04-04 10:00:00 4.8 19 Este 45 Nordeste 0 846.7 -0.1 61
2020-04-04 09:00:00 2.2 24 Este 35 Este 0 846.6 -0.3 77
2020-04-04 08:00:00 -0.7 10 Este 18 Este 0 846.6 -0.5 86
2020-04-04 07:00:00 -0.5 9 Este 19 Este 0 846.8 -0.6 79
2020-04-04 06:00:00 -0.6 10 Este 16 Este 0 846.9 -0.8 80
2020-04-04 05:00:00 0.3 7 Este 15 Sur 0 847.1 -0.9 76
2020-04-04 04:00:00 0.7 5 Sudeste 13 Sur 0 847.4 -0.8 78
2020-04-04 03:00:00 0.1 6 Este 12 Este 0 847.7 -0.6 82
2020-04-04 02:00:00 1 5 Sudeste 18 Nordeste 0 848 -0.4 79
2020-04-04 01:00:00 0.8 4 Sudeste 10 Este 0 848.2 0.1 78
2020-04-04 00:00:00 1.9 5 Este 12 Sudeste 0 848.3 0.7 74
2020-04-03 23:00:00 1.1 3 Sudeste 12 Este 0 848.4 0.8 76
2020-04-03 22:00:00 2.8 7 Este 14 Sudeste 0 848.1 0.8 69
2020-04-03 21:00:00 5.2 7 Sudeste 14 Sur 0 847.6 0.4 61
2020-04-03 20:00:00 9.3 8 Sur 14 Sur 0 847.6 0.3 46
2020-04-03 19:00:00 10.9 9 Sur 26 Sudeste 0 847.3 -0.3 42
2020-04-03 18:00:00 10.9 17 Sudeste 31 Sudeste 0 847.2 -0.4 43
2020-04-03 17:00:00 11.7 10 Noroeste 28 Este 0 847.3 -0.8 51
2020-04-03 16:00:00 11.6 17 Este 40 Este 0 847.6 -0.9 41
2020-04-03 15:00:00 11.1 17 Este 26 Este 0 847.6 -0.8 45
2020-04-03 14:00:00 8.8 12 Oeste 25 Oeste 0 848.1 -0.1 46
2020-04-03 13:00:00 7.1 21 Oeste 29 Oeste 0 848.5 0.4 46
2020-04-03 12:00:00 6.6 18 Oeste 25 Oeste 0 848.4 0.4 49
2020-04-03 11:00:00 5.4 16 Oeste 23 Oeste 0 848.2 0.6 60
2020-04-03 10:00:00 1.5 2 Sudeste 7 Este 0 848.1 0.5 75
2020-04-03 09:00:00 -3.3 3 Este 5 Este 0 848 0.5 89
2020-04-03 08:00:00 -6 0 Calma 5 Sudeste 0 847.6 0.1 88
2020-04-03 07:00:00 -5.7 0 Calma 4 Este 0 847.6 -0.2 88
2020-04-03 06:00:00 -5.4 0 Calma 6 Sudeste 0 847.5 -0.6 87
2020-04-03 05:00:00 -4.3 0 Calma 9 Oeste 0 847.5 -1.1 89
2020-04-03 04:00:00 -3.5 6 Oeste 10 Oeste 0 847.8 -1 89
2020-04-03 03:00:00 -2.6 5 Oeste 12 Oeste 0 848.1 -0.9 89
2020-04-03 02:00:00 -1.2 7 Oeste 20 Oeste 0 848.6 -0.3 86
2020-04-03 01:00:00 -0.1 10 Oeste 27 Oeste 0 848.8 0.1 89
2020-04-03 00:00:00 0.3 13 Oeste 22 Oeste 0 849 0.7 80
2020-04-02 23:00:00 0.7 10 Noroeste 25 Noroeste 0 848.9 0.8 84
2020-04-02 22:00:00 1.1 14 Noroeste 32 Noroeste 0 848.7 0.7 81
2020-04-02 21:00:00 1.8 15 Noroeste 30 Noroeste 0 848.3 0.6 79
2020-04-02 20:00:00 2.4 12 Noroeste 26 Noroeste 0 848.1 0.5 82
2020-04-02 19:00:00 3 17 Noroeste 28 Noroeste 0 848 0.3 76
2020-04-02 18:00:00 3.8 15 Noroeste 30 Noroeste 0 847.7 -0.1 72
2020-04-02 17:00:00 3.4 17 Noroeste 30 Noroeste 0 847.6 0.1 79
2020-04-02 16:00:00 3.5 13 Noroeste 27 Noroeste 0 847.7 0.1 81
2020-04-02 15:00:00 3.1 11 Noroeste 24 Noroeste 0 847.8 0.3 82
2020-04-02 14:00:00 3.3 11 Noroeste 27 Noroeste 0.2 847.5 0.6 87
2020-04-02 13:00:00 3 11 Noroeste 26 Norte 0.2 847.6 1.3 87
2020-04-02 12:00:00 2.4 12 Noroeste 30 Noroeste 0 847.5 1.8 88
2020-04-02 11:00:00 2.8 8 Noroeste 23 Noroeste 1.8 846.9 1.7 87
2020-04-02 10:00:00 2.4 9 Noroeste 26 Noroeste 1.6 846.3 1.2 88
2020-04-02 09:00:00 2.5 13 Noroeste 28 Noroeste 0 845.7 1.1 91
2020-04-02 08:00:00 2.7 8 Noroeste 25 Nordeste 0 845.2 0.4 87
2020-04-02 07:00:00 2.7 8 Nordeste 29 Nordeste 0 845.1 0.1 85
2020-04-02 06:00:00 2.9 10 Nordeste 34 Nordeste 0 844.6 -0.5 89
2020-04-02 05:00:00 2.4 4 Oeste 13 Oeste 0.2 844.8 -0.3 94
2020-04-02 04:00:00 2.4 8 Noroeste 22 Noroeste 0 845 -0.1 93
2020-04-02 03:00:00 2.6 5 Oeste 18 Oeste 0 845.1 -0.1 92
2020-04-02 02:00:00 2.7 4 Noroeste 13 Noroeste 0 845.1 0.1 91
2020-04-02 01:00:00 2.6 6 Noroeste 12 Noroeste 0 845.1 0.4 92
2020-04-02 00:00:00 2.5 8 Noroeste 15 Oeste 0.2 845.2 1.1 93
2020-04-01 23:00:00 2.7 7 Noroeste 23 Noroeste 0 845 1.1 93
2020-04-01 22:00:00 2.9 12 Noroeste 22 Noroeste 0.2 844.7 0.9 93
2020-04-01 21:00:00 3.2 6 Oeste 17 Noroeste 0 844.1 0.4 90
2020-04-01 20:00:00 3.6 6 Oeste 14 Oeste 0.2 843.9 0.4 85
2020-04-01 19:00:00 3.8 11 Oeste 21 Noroeste 0 843.8 0.4 83
2020-04-01 18:00:00 4.4 11 Norte 24 Noroeste 0 843.7 0.1 82
2020-04-01 17:00:00 4.5 15 Noroeste 26 Noroeste 0 843.5 -0.2 85
2020-04-01 16:00:00 6.2 14 Oeste 20 Oeste 0 843.4 -0.5 72
2020-04-01 15:00:00 6.2 6 Este 15 Este 0 843.6 -0.3 68
2020-04-01 14:00:00 6.3 4 Sur 26 Este 0 843.7 0.1 69
2020-04-01 13:00:00 5 10 Este 19 Este 0 843.9 0.7 74
2020-04-01 12:00:00 4.1 11 Este 17 Este 0 843.9 1.2 79
2020-04-01 11:00:00 3.1 12 Este 22 Este 0.2 843.6 1.3 89
2020-04-01 10:00:00 2.3 -- -- -- -- 0 843.2 1.4 93
2020-04-01 09:00:00 2 13 Este 23 Este 0 842.7 1.1 92
2020-04-01 08:00:00 1.8 15 Este 26 Nordeste 0.2 842.3 0.9 92
2020-04-01 07:00:00 2 14 Sudeste 34 Este 0.2 841.8 0.2 88
2020-04-01 06:00:00 2 19 Este 41 Este 1 841.6 0.1 90
2020-04-01 05:00:00 1.8 19 Este 35 Este 0.8 841.4 -0.1 91
2020-04-01 04:00:00 1.9 23 Este 43 Este 1.2 841.6 0 89
2020-04-01 03:00:00 2.7 22 Este 42 Sudeste 0.4 841.5 0 89
2020-04-01 02:00:00 2.9 23 Sudeste 39 Este 0.4 841.5 0 88
2020-04-01 01:00:00 2.7 23 Este 34 Este 0 841.6 0.5 89
2020-04-01 00:00:00 2.6 21 Este 36 Este 0 841.5 1.2 88
2020-03-31 23:00:00 2.2 19 Sudeste 35 Sudeste 0.6 841.5 1.6 89
2020-03-31 22:00:00 1.9 23 Este 47 Sudeste 0.4 841.1 1.5 88
2020-03-31 21:00:00 2.1 26 Sudeste 43 Sudeste 0.2 840.3 1 85
2020-03-31 20:00:00 2.3 28 Sudeste 42 Sudeste 0.2 839.9 0.8 81
2020-03-31 19:00:00 2.5 25 Sudeste 39 Sudeste 0.4 839.6 0.4 83
2020-03-31 18:00:00 3.5 26 Sudeste 41 Sudeste 0 839.3 -0.1 75
2020-03-31 17:00:00 4.8 22 Sudeste 40 Este 0 839.1 -0.4 67
2020-03-31 16:00:00 5.1 21 Sudeste 50 Sudeste 0 839.2 -0.3 65
2020-03-31 15:00:00 4.9 24 Sudeste 46 Sudeste 0 839.4 -0.3 67
2020-03-31 14:00:00 5.2 23 Este 35 Este 1 839.5 -0.2 60
2020-03-31 13:00:00 5 22 Este 35 Sudeste 2.6 839.5 0 59
2020-03-31 12:00:00 1.9 25 Sudeste 37 Sudeste 0 839.7 0.1 62
2020-03-31 11:00:00 1.2 14 Este 20 Este 0 839.7 0.2 55
2020-03-31 10:00:00 -4 3 Norte 15 Oeste 0 839.5 -0.3 79
2020-03-31 09:00:00 -4.3 8 Sudeste 22 Sudeste 0 839.6 -0.4 68
2020-03-31 08:00:00 -5.6 6 Sudeste 13 Sudeste 0 839.5 -0.9 79
2020-03-31 07:00:00 -5.4 5 Sudeste 11 Noroeste 0 839.8 -1.5 77
2020-03-31 06:00:00 -5.4 5 Noroeste 20 Sudeste 0 840 -2.3 81
2020-03-31 05:00:00 -4.9 10 Sudoeste 17 Sudoeste 0 840.4 -2.5 78
2020-03-31 04:00:00 -5.2 5 Nordeste 13 Este 0 841.3 -2 82
2020-03-31 03:00:00 -5.1 6 Nordeste 18 Nordeste 0 842.3 -1.6 84
2020-03-31 02:00:00 -5.2 8 Norte 25 Nordeste 0 842.9 -1.4 87
2020-03-31 01:00:00 -5.1 5 Noroeste 22 Nordeste 0 843.3 -1.3 86
2020-03-31 00:00:00 -4.8 9 Nordeste 28 Noroeste 0 843.9 -0.9 85
2020-03-30 23:00:00 -4.8 9 Noroeste 32 Noroeste 0 844.3 -0.7 84
2020-03-30 22:00:00 -5.2 13 Noroeste 41 Noroeste 0 844.6 -0.8 87
2020-03-30 21:00:00 -5.2 8 Noroeste 26 Nordeste 0 844.8 -0.7 81
2020-03-30 20:00:00 -4.9 7 Este 28 Noroeste 0 845 -0.8 79
2020-03-30 19:00:00 -4.6 10 Nordeste 24 Noroeste 0 845.4 -0.8 76
2020-03-30 18:00:00 -4.1 10 Nordeste 24 Nordeste 0 845.5 -1.1 79
2020-03-30 17:00:00 -3.5 12 Norte 28 Este 0 845.8 -1.3 70
2020-03-30 16:00:00 -3.2 12 Nordeste 28 Norte 0 846.2 -1.1 75
2020-03-30 15:00:00 -4.3 13 Noroeste 26 Noroeste 0 846.6 -1.1 79
2020-03-30 14:00:00 -3.5 9 Nordeste 36 Este 0 847.1 -0.7 77
2020-03-30 13:00:00 -4.4 10 Norte 40 Noroeste 0 847.3 -0.3 80
2020-03-30 12:00:00 -4.2 16 Norte 33 Noroeste 0 847.7 -0.4 80
2020-03-30 11:00:00 -3.9 13 Nordeste 41 Este 0 847.8 0 81
2020-03-30 10:00:00 -4.7 14 Noroeste 35 Noroeste 0 847.6 -0.4 89
2020-03-30 09:00:00 -4.6 11 Noroeste 37 Noroeste 0 848.1 -0.2 79
2020-03-30 08:00:00 -4.4 15 Noroeste 40 Noroeste 0 847.8 -1.4 81
2020-03-30 07:00:00 -4.1 13 Nordeste 35 Nordeste 0 848 -1.4 87
2020-03-30 06:00:00 -4.1 6 Nordeste 36 Este 0 848.3 -1.7 85
2020-03-30 05:00:00 -3.9 14 Nordeste 42 Nordeste 0 849.2 -1.2 87
2020-03-30 04:00:00 -3.2 13 Nordeste 35 Nordeste 0 849.4 -1.3 89
2020-03-30 03:00:00 -2.3 8 Norte 27 Norte 0 850 -0.8 91
2020-03-30 02:00:00 -2.1 11 Norte 31 Nordeste 0 850.4 -0.5 93
2020-03-30 01:00:00 -1.5 11 Noroeste 27 Noroeste 0 850.7 -0.2 94
2020-03-30 00:00:00 -0.9 11 Noroeste 24 Noroeste 0 850.8 0.1 95
2020-03-29 23:00:00 -0.3 12 Noroeste 23 Noroeste 0 850.9 -0.1 94
2020-03-29 22:00:00 0.5 12 Noroeste 24 Noroeste 0 850.9 0.1 94
2020-03-29 21:00:00 0.9 10 Noroeste 26 Noroeste 0 850.7 0.1 91
2020-03-29 20:00:00 1.2 12 Noroeste 23 Noroeste 0 851 0.2 82
2020-03-29 19:00:00 2 10 Norte 25 Noroeste 0 850.8 0 80
2020-03-29 18:00:00 2.6 10 Noroeste 24 Noroeste 0 850.6 -0.2 81
2020-03-29 17:00:00 3.5 11 Noroeste 27 Noroeste 0 850.8 -0.1 73
2020-03-29 16:00:00 4 17 Oeste 30 Oeste 0 850.8 -0.2 79
2020-03-29 15:00:00 4.5 24 Noroeste 33 Noroeste 0 850.8 -0.1 82
2020-03-29 14:00:00 3.6 27 Oeste 32 Noroeste 0 850.9 0.2 87
2020-03-29 13:00:00 4.2 21 Oeste 27 Oeste 0 851 0.4 83
2020-03-29 12:00:00 4.4 18 Oeste 24 Oeste 0 850.9 0.3 78
2020-03-29 11:00:00 4.5 15 Oeste 20 Noroeste 0 850.7 0.5 69
2020-03-29 10:00:00 3.3 3 Este 5 Este 0 850.6 0.5 67
2020-03-29 09:00:00 -0.8 4 Oeste 10 Noroeste 0 850.6 0.5 77
2020-03-29 08:00:00 -1.9 8 Noroeste 11 Noroeste 0 850.2 -0.2 76
2020-03-29 07:00:00 -1.1 6 Noroeste 11 Noroeste 0 850.1 -0.7 74
2020-03-29 06:00:00 -0.8 6 Oeste 10 Noroeste 0 850.1 -1.1 73
2020-03-29 05:00:00 -1 7 Oeste 10 Oeste 0 850.4 -1 77
2020-03-29 03:00:00 -1.5 5 Noroeste 9 Oeste 0 851.2 -0.2 83
2020-03-29 01:00:00 -0.7 5 Oeste 9 Noroeste 0 851.4 0 82
2020-03-29 00:00:00 -0.2 6 Oeste 9 Noroeste 0 851.3 0.2 88
2020-03-28 23:00:00 -0.2 6 Noroeste 8 Noroeste 0 851.4 0.9 87
2020-03-28 22:00:00 0.9 7 Noroeste 12 Oeste 0 851.4 1.3 88
2020-03-28 21:00:00 1.3 10 Oeste 15 Oeste 0 851.1 1.6 87
2020-03-28 20:00:00 2.8 12 Oeste 23 Oeste 0 850.5 1.4 82
2020-03-28 19:00:00 5 17 Oeste 27 Oeste 0 850.1 1 73
2020-03-28 18:00:00 7.1 21 Oeste 29 Oeste 0 849.5 0.2 60
2020-03-28 17:00:00 8.4 18 Oeste 28 Oeste 0 849.1 -0.3 53
2020-03-28 16:00:00 8.9 20 Oeste 31 Noroeste 0 849.1 -0.3 53
2020-03-28 15:00:00 9 21 Oeste 31 Oeste 0 849.3 -0.2 46
2020-03-28 14:00:00 9.3 18 Oeste 33 Noroeste 0 849.4 -0.1 36
2020-03-28 13:00:00 9.4 15 Oeste 26 Noroeste 0 849.4 0 30
2020-03-28 12:00:00 8.6 9 Noroeste 16 Oeste 0 849.5 0.4 29
2020-03-28 11:00:00 7.6 8 Oeste 16 Oeste 0 849.5 0.9 32
2020-03-28 10:00:00 6 8 Oeste 15 Oeste 0 849.4 1.3 36
2020-03-28 09:00:00 3.1 3 Noroeste 8 Oeste 0 849.1 1.4 52
2020-03-28 08:00:00 -2.7 6 Oeste 11 Oeste 0 848.6 1.1 70
2020-03-28 07:00:00 -4.4 8 Oeste 10 Oeste 0 848.1 0.7 73
2020-03-28 06:00:00 -4.3 5 Oeste 8 Oeste 0 847.7 0.2 75
2020-03-28 05:00:00 -4.2 6 Oeste 8 Oeste 0 847.5 0 76
2020-03-28 04:00:00 -4.4 2 Oeste 7 Oeste 0 847.4 0.1 77
2020-03-28 03:00:00 -4.1 4 Noroeste 5 Noroeste 0 847.5 0.2 78
2020-03-28 02:00:00 -3.3 0 Calma 4 Oeste 0 847.5 0.3 72
2020-03-28 01:00:00 -2.9 2 Oeste 6 Oeste 0 847.3 0.6 70
2020-03-28 00:00:00 -2.6 2 Oeste 6 Noroeste 0 847.3 1.3 67
2020-03-27 23:00:00 -2.3 3 Oeste 7 Noroeste 0 847.2 2 65
2020-03-27 22:00:00 -1.4 3 Noroeste 8 Oeste 0 846.7 2 60
2020-03-27 21:00:00 0.2 3 Oeste 10 Noroeste 0 846 1.8 60
2020-03-27 20:00:00 1.4 8 Noroeste 21 Sudeste 0 845.2 1.4 76
2020-03-27 19:00:00 6.6 4 Sur 20 Sur 0 844.7 0.9 28
2020-03-27 18:00:00 7.3 9 Sudoeste 30 Sudeste 0 844.2 0.5 26
2020-03-27 17:00:00 7.6 12 Sudeste 32 Sudeste 0 843.8 0 22
2020-03-27 16:00:00 8.4 9 Sudoeste 31 Sudeste 0 843.8 -0.3 18
2020-03-27 15:00:00 8.3 11 Sudeste 39 Sudeste 0 843.7 -0.6 22
2020-03-27 14:00:00 7.4 14 Sudeste 37 Este 0 843.8 -0.6 24
2020-03-27 13:00:00 5.4 15 Sudeste 39 Sudeste 0 844.1 0.1 26
2020-03-27 12:00:00 4.1 26 Sudeste 39 Sudeste 0 844.3 0.6 30
2020-03-27 11:00:00 3.3 21 Este 30 Este 0 844.4 1.1 38
2020-03-27 10:00:00 1.4 19 Este 26 Este 0 844 1.2 43
2020-03-27 09:00:00 -1.3 9 Este 12 Este 0 843.7 1 58
2020-03-27 08:00:00 -4.9 5 Sudeste 8 Sudeste 0 843.3 0.8 71
2020-03-27 07:00:00 -6.8 3 Sur 7 Sudeste 0 842.8 0.1 78
2020-03-27 06:00:00 -7.2 4 Este 10 Sudeste 0 842.7 -0.2 78
2020-03-27 05:00:00 -7.1 4 Noroeste 8 Sur 0 842.5 -0.7 82
2020-03-27 04:00:00 -7.1 0 Calma 14 Sur 0 842.7 -0.6 84
2020-03-27 03:00:00 -6.1 5 Oeste 10 Noroeste 0 842.9 -0.3 84
2020-03-27 02:00:00 -3.6 5 Noroeste 16 Nordeste 0 843.2 -0.2 75
2020-03-27 01:00:00 -2.5 8 Noroeste 23 Noroeste 0 843.3 -0.2 74
2020-03-27 00:00:00 -2.2 16 Noroeste 34 Oeste 0 843.2 -0.6 76
2020-03-26 23:00:00 -1.6 16 Noroeste 39 Noroeste 0 843.4 -0.4 75
2020-03-26 22:00:00 -1 17 Noroeste 41 Noroeste 0 843.5 0 78
2020-03-26 21:00:00 -0.7 17 Noroeste 42 Noroeste 0 843.8 0.5 76
2020-03-26 20:00:00 -0.5 19 Noroeste 46 Noroeste 0 843.8 0.3 74
2020-03-26 19:00:00 0.4 22 Noroeste 41 Noroeste 0 843.5 -0.1 71
2020-03-26 18:00:00 2.2 26 Noroeste 48 Noroeste 0 843.3 -0.4 68
2020-03-26 17:00:00 2.5 22 Noroeste 42 Noroeste 0 843.5 -0.7 64
2020-03-26 16:00:00 3.7 22 Noroeste 45 Oeste 0 843.6 -0.9 58
2020-03-26 15:00:00 3.5 26 Noroeste 45 Noroeste 0 843.7 -0.9 57
2020-03-26 14:00:00 2 24 Noroeste 43 Noroeste 0 844.2 -0.3 63
2020-03-26 13:00:00 2.3 30 Noroeste 45 Noroeste 0 844.5 0.1 62
2020-03-26 12:00:00 1.8 18 Noroeste 37 Noroeste 0 844.6 0.4 65
2020-03-26 11:00:00 0.9 23 Noroeste 39 Oeste 0 844.5 0.3 60
2020-03-26 10:00:00 1.1 23 Noroeste 42 Oeste 0 844.4 0.2 36
2020-03-26 09:00:00 0.5 29 Oeste 40 Oeste 0 844.2 -0.1 23
2020-03-26 08:00:00 -2.3 22 Noroeste 35 Noroeste 0 844.2 -0.3 44
2020-03-26 07:00:00 -1.7 25 Oeste 38 Oeste 0 844.2 -0.9 33
2020-03-26 06:00:00 -1.1 23 Noroeste 36 Oeste 0 844.3 -1.4 25
2020-03-26 05:00:00 -0.7 20 Noroeste 32 Noroeste 0 844.5 -1.7 23
2020-03-26 04:00:00 -2 19 Noroeste 25 Oeste 0 845.1 -1.2 39
2020-03-26 03:00:00 -1.5 18 Oeste 31 Noroeste 0 845.7 -1 75
2020-03-26 02:00:00 -0.7 21 Oeste 34 Oeste 0 846.2 -1.2 87
2020-03-26 01:00:00 0 24 Noroeste 39 Noroeste 0 846.3 -1.2 84
2020-03-26 00:00:00 0.3 21 Noroeste 28 Noroeste 0 846.7 -0.5 84
2020-03-25 23:00:00 0.8 19 Oeste 32 Noroeste 0 847.4 0.1 89
2020-03-25 22:00:00 1.8 19 Noroeste 33 Noroeste 0 847.5 0.3 87
2020-03-25 21:00:00 2.5 24 Noroeste 34 Noroeste 0 847.2 0 78
2020-03-25 20:00:00 3.2 19 Noroeste 32 Oeste 0 847.3 0 74
2020-03-25 19:00:00 6.2 18 Noroeste 34 Noroeste 0 847.2 -0.1 45
2020-03-25 18:00:00 7.7 15 Noroeste 40 Oeste 0 847.2 -0.4 50
2020-03-25 17:00:00 7.6 16 Noroeste 48 Oeste 0 847.3 -0.6 47
2020-03-25 16:00:00 9 22 Noroeste 41 Noroeste 0 847.3 -0.7 48
2020-03-25 15:00:00 9.9 15 Norte 41 Noroeste 0 847.6 -0.6 34
2020-03-25 14:00:00 9.2 17 Norte 38 Noroeste 0 847.9 -0.1 26
2020-03-25 13:00:00 9.2 17 Noroeste 37 Noroeste 0 848 0 47
2020-03-25 12:00:00 8.6 11 Noroeste 43 Noroeste 0 848.2 0.3 35
2020-03-25 11:00:00 7.9 16 Oeste 33 Oeste 0 848 0 41
2020-03-25 10:00:00 6.4 22 Oeste 31 Oeste 0 848 0.2 75
2020-03-25 09:00:00 5.4 18 Noroeste 24 Noroeste 0 847.9 0 84
2020-03-25 08:00:00 3.1 13 Oeste 19 Oeste 0.2 848 0 89
2020-03-25 07:00:00 1.8 10 Oeste 15 Oeste 0 847.8 -0.3 93
2020-03-25 06:00:00 0.8 5 Noroeste 11 Noroeste 0 847.9 -0.7 89
2020-03-25 05:00:00 0.7 4 Oeste 8 Noroeste 0 848 -0.7 89
2020-03-25 04:00:00 1 4 Oeste 7 Noroeste 0 848.1 -0.8 91
2020-03-25 03:00:00 0.7 4 Oeste 7 Noroeste 0 848.6 -0.6 91
2020-03-25 02:00:00 0.5 5 Oeste 8 Noroeste 0 848.7 -0.7 91
2020-03-25 01:00:00 0.7 6 Oeste 9 Oeste 0 848.9 -0.4 89
2020-03-25 00:00:00 1.5 5 Oeste 6 Oeste 0 849.2 0 90
2020-03-24 23:00:00 2.4 4 Oeste 6 Noroeste 0 849.4 0.5 87
2020-03-24 22:00:00 5.4 2 Este 10 Oeste 0 849.3 0.4 83
2020-03-24 21:00:00 5.9 8 Oeste 14 Oeste 0 849.2 0.6 84
2020-03-24 20:00:00 7.3 12 Oeste 19 Oeste 0 848.9 0.4 79
2020-03-24 19:00:00 8.1 10 Oeste 17 Noroeste 0 848.9 0.4 72
2020-03-24 18:00:00 8.7 9 Noroeste 26 Noroeste 0 848.6 0.1 70
2020-03-24 17:00:00 8.9 18 Noroeste 26 Noroeste 0 848.5 -0.7 68
2020-03-24 16:00:00 10 13 Noroeste 24 Noroeste 0 848.5 -1.1 62
2020-03-24 15:00:00 13.3 10 Nordeste 24 Este 0 848.5 -1.1 35
2020-03-24 14:00:00 11.1 9 Nordeste 24 Este 0 849.2 -0.6 45
2020-03-24 13:00:00 10.2 15 Este 40 Este 0 849.6 -0.5 49
2020-03-24 12:00:00 9.6 17 Sudeste 31 Este 0 849.6 -0.3 55
2020-03-24 11:00:00 7.2 13 Sudeste 30 Este 0 849.8 0.2 63
2020-03-24 10:00:00 5.8 15 Este 26 Este 0 850.1 0.8 74
2020-03-24 09:00:00 4.6 13 Este 26 Sudeste 0 849.9 0.6 77
2020-03-24 08:00:00 2.4 7 Este 19 Este 0 849.6 0.3 86
2020-03-24 07:00:00 4.2 17 Este 34 Sudeste 0 849.3 0.2 79
2020-03-24 06:00:00 3.6 14 Este 26 Sudeste 0 849.3 0 80
2020-03-24 05:00:00 4 12 Este 32 Este 0 849.3 -0.1 78
2020-03-24 04:00:00 3.4 11 Este 27 Sudeste 0 849.1 -0.3 85
2020-03-24 03:00:00 3.8 12 Este 24 Este 0 849.3 0 83
2020-03-24 02:00:00 3.6 10 Este 19 Sudeste 0 849.4 0.3 84
2020-03-24 01:00:00 3.7 7 Este 22 Sudeste 0 849.4 0.3 83
2020-03-24 00:00:00 4.6 13 Sudeste 22 Sudeste 0 849.3 0.6 80
2020-03-23 23:00:00 2.3 4 Este 12 Este 0 849.1 0.6 86
2020-03-23 22:00:00 2 2 Oeste 8 Sudeste 0 849.1 0.9 90
2020-03-23 21:00:00 3.6 3 Sudeste 8 Oeste 0 848.7 0.7 84
2020-03-23 20:00:00 4.4 6 Oeste 9 Noroeste 0 848.5 0.7 86
2020-03-23 19:00:00 5.4 6 Noroeste 15 Noroeste 0 848.2 0.4 85
2020-03-23 18:00:00 5.5 12 Noroeste 17 Noroeste 0 848 0.2 85
2020-03-23 17:00:00 6.1 14 Oeste 25 Oeste 0 847.8 -0.3 83
2020-03-23 16:00:00 7.4 13 Oeste 32 Oeste 0 847.8 -0.7 73
2020-03-23 15:00:00 8.2 21 Oeste 31 Oeste 0 847.8 -0.9 69
2020-03-23 14:00:00 9.7 12 Sudeste 31 Este 0 848.1 -0.6 47
2020-03-23 13:00:00 9.5 15 Sudeste 31 Este 0 848.5 -0.4 45
2020-03-23 12:00:00 8.5 13 Sudeste 31 Este 0 848.7 0.2 47
2020-03-23 11:00:00 7.7 17 Este 28 Este 0 848.7 0.6 50
2020-03-23 10:00:00 6.4 5 Este 9 Este 0 848.9 1.1 57
2020-03-23 09:00:00 1.9 3 Oeste 7 Oeste 0 848.5 1 75
2020-03-23 08:00:00 -1.4 5 Oeste 9 Noroeste 0 848.1 0.8 81
2020-03-23 07:00:00 -2.3 7 Noroeste 10 Noroeste 0 847.8 0.6 83
2020-03-23 06:00:00 -2 7 Noroeste 10 Noroeste 0 847.5 0 83
2020-03-23 05:00:00 -2 8 Noroeste 10 Noroeste 0 847.3 -0.5 85
2020-03-23 04:00:00 -1.5 3 Nordeste 12 Sur 0 847.2 -0.7 84
2020-03-23 03:00:00 -1.8 7 Noroeste 9 Noroeste 0 847.5 -0.4 89
2020-03-23 02:00:00 -0.4 4 Noroeste 16 Oeste 0 847.8 -0.1 89
2020-03-23 01:00:00 1.2 12 Oeste 17 Oeste 0 847.9 0.2 91
2020-03-23 00:00:00 0.1 12 Oeste 15 Oeste 0 847.9 0.6 92
2020-03-22 23:00:00 -0.8 7 Noroeste 9 Noroeste 0 847.9 1.1 89
2020-03-22 22:00:00 0.4 5 Oeste 11 Sur 0 847.7 1.3 86
2020-03-22 21:00:00 2.6 5 Noroeste 14 Noroeste 0 847.3 1.4 83
2020-03-22 20:00:00 4.6 8 Oeste 21 Oeste 0 846.8 1.2 81
2020-03-22 19:00:00 5.7 11 Noroeste 23 Oeste 0 846.4 1 82
2020-03-22 18:00:00 6.8 15 Noroeste 26 Noroeste 0 845.9 0.5 73
2020-03-22 17:00:00 7.5 14 Noroeste 25 Noroeste 0 845.6 0.2 70
2020-03-22 16:00:00 8 19 Oeste 33 Noroeste 0 845.4 -0.3 68
2020-03-22 15:00:00 8.3 19 Noroeste 33 Oeste 0 845.4 -0.4 64
2020-03-22 14:00:00 8.6 20 Oeste 29 Noroeste 0 845.4 -0.4 67
2020-03-22 13:00:00 9.1 9 Oeste 23 Nordeste 0 845.7 0.2 64
2020-03-22 12:00:00 8.8 13 Norte 26 Norte 0 845.8 0.8 54
2020-03-22 11:00:00 7.4 8 Norte 18 Nordeste 0 845.8 1 64
2020-03-22 10:00:00 7.1 9 Este 17 Este 0 845.5 1.1 72
2020-03-22 09:00:00 5.2 4 Sudeste -- -- 0 845 0.9 83
2020-03-22 08:00:00 3.6 -- -- -- -- 0 844.8 0.9 90
2020-03-22 07:00:00 2 5 Noroeste 12 Noroeste 0 844.4 0.4 91
2020-03-22 06:00:00 1.1 4 Noroeste 8 Sudoeste 0 844.1 0 89
2020-03-22 05:00:00 2 2 Oeste 9 Noroeste 0 843.9 -0.2 91
2020-03-22 04:00:00 2.3 4 Oeste 6 Oeste 0 844 -0.2 91
2020-03-22 03:00:00 2.7 5 Oeste 9 Noroeste 0 844.1 -0.3 91
2020-03-22 02:00:00 2 7 Noroeste 10 Noroeste 0 844.1 -0.1 91
2020-03-22 01:00:00 2.4 6 Oeste 9 Oeste 0 844.2 0.1 90
2020-03-22 00:00:00 3.8 2 Norte 8 Noroeste 0 844.4 0.6 89
2020-03-21 23:00:00 4.1 6 Oeste 13 Oeste 0 844.2 0.6 89
2020-03-21 22:00:00 4.3 8 Oeste 12 Oeste 0 844.1 1.1 89
2020-03-21 21:00:00 4.1 5 Oeste 12 Oeste 0.2 843.8 1.2 88
2020-03-21 20:00:00 4.8 13 Oeste 17 Oeste 0 843.6 1.1 87
2020-03-21 19:00:00 6.7 4 Sur 17 Este 0.2 843 0.2 75
2020-03-21 18:00:00 7 7 Sur 19 Nordeste 1 842.6 -0.1 70
2020-03-21 17:00:00 8.7 8 Norte 21 Nordeste 0 842.5 -0.6 51
2020-03-21 16:00:00 8.6 7 Nordeste 35 Este 0 842.8 -0.5 63
2020-03-21 15:00:00 11.2 9 Sudeste 35 Sudeste 0 842.7 -0.9 51
2020-03-21 14:00:00 12.2 10 Sudeste 28 Sudeste 0 843.1 -0.9 46
2020-03-21 13:00:00 11.5 14 Sudeste 26 Sudeste 0 843.3 -0.9 46
2020-03-21 12:00:00 9.6 15 Este 22 Este 0 843.6 -0.5 61
2020-03-21 11:00:00 8.1 12 Este 21 Este 0 844 0 68
2020-03-21 10:00:00 6.2 13 Este 22 Este 0 844.2 0.1 77
2020-03-21 09:00:00 4.6 13 Este 33 Sudeste 0 844.1 0 85
2020-03-21 08:00:00 4.4 22 Sudeste 32 Sudeste 0 844 -0.1 85
2020-03-21 07:00:00 4.4 14 Este 36 Sudeste 0 844.1 -0.1 87
2020-03-21 06:00:00 4.6 21 Este 42 Este 0 844.1 -0.7 86
2020-03-21 05:00:00 5.1 24 Este 43 Este 0 844.1 -1 84
2020-03-21 04:00:00 5.7 21 Este 42 Sudeste 0 844.2 -1.3 84
2020-03-21 03:00:00 5.2 16 Este 38 Sudeste 0 844.8 -1 89
2020-03-21 02:00:00 5.5 16 Este 37 Sudeste 0 845.1 -1 89
2020-03-21 01:00:00 5.7 18 Este 33 Sudeste 0 845.5 -0.6 88
2020-03-21 00:00:00 6.2 15 Este 36 Sudeste 0.2 845.8 -0.2 84
2020-03-20 23:00:00 6.2 6 Sudoeste 33 Sudeste 0.6 846.1 0.2 82
2020-03-20 22:00:00 6.1 9 Sudeste 31 Este 0.2 846.1 0.3 81
2020-03-20 21:00:00 6.5 17 Sudeste 33 Sudeste 0 846 -0.1 76
2020-03-20 20:00:00 6.5 15 Sudeste 35 Sudeste 0 845.9 -0.1 75
2020-03-20 19:00:00 6.9 18 Sudeste 31 Sudeste 0 845.8 -0.3 73
2020-03-20 18:00:00 7.4 9 Sudeste 35 Este 0 846.1 -0.5 71
2020-03-20 17:00:00 7.9 19 Este 31 Este 0 846 -0.8 69
2020-03-20 16:00:00 7.3 18 Este 35 Sudeste 0 846.1 -0.9 74
2020-03-20 15:00:00 7.1 15 Este 27 Este 0 846.6 -0.6 74
2020-03-20 14:00:00 6.1 19 Este 29 Este 0 846.8 -0.5 80
2020-03-20 13:00:00 5.4 19 Este 29 Este 0 847 -0.1 84
2020-03-20 12:00:00 6 8 Este 30 Sudeste 0 847.2 0.2 81
2020-03-20 11:00:00 5.9 7 Sur 27 Sudeste 0 847.3 0.5 80
2020-03-20 10:00:00 6.3 7 Sudeste 29 Este 0 847.1 0.4 77
2020-03-20 09:00:00 4.9 9 Este 23 Este 0 847 0.3 83
2020-03-20 08:00:00 3.8 16 Este 33 Este 0 846.8 -0.1 84
2020-03-20 07:00:00 4.7 13 Sudeste 40 Sudeste 0 846.7 -0.4 77
2020-03-20 06:00:00 4 13 Este 27 Sudeste 0 846.7 -0.8 80
2020-03-20 05:00:00 4.1 10 Nordeste 20 Este 0 846.9 -0.9 78
2020-03-20 04:00:00 4.8 11 Este 35 Sudeste 0 847.1 -1.2 70
2020-03-20 03:00:00 6.2 13 Sudeste 30 Sudeste 0 847.5 -1.4 63
2020-03-20 02:00:00 6.9 12 Sudeste 33 Sur 0 847.8 -1.5 53
2020-03-20 01:00:00 5 9 Este 27 Sudeste 0 848.3 -1 59
2020-03-20 00:00:00 5.9 7 Sudeste 30 Sudeste 0 848.9 -0.6 55
2020-03-19 23:00:00 4.7 4 Este 13 Este 0 849.3 -0.3 61
2020-03-19 22:00:00 5.6 10 Este 26 Este 0 849.3 -0.2 61
2020-03-19 21:00:00 5.1 4 Sudeste 9 Sudeste 0 849.5 -0.4 63
2020-03-19 20:00:00 4.7 2 Oeste 5 Oeste 0 849.6 -0.8 76
2020-03-19 19:00:00 6.6 3 Noroeste 8 Oeste 0 849.5 -0.6 74
2020-03-19 18:00:00 6.8 8 Oeste 13 Oeste 0 849.9 -0.6 72
2020-03-19 17:00:00 8.2 8 Este 33 Nordeste 0.2 850.4 -0.9 61
2020-03-19 16:00:00 10.6 7 Noroeste 17 Oeste 0 850.1 -1.8 57
2020-03-19 15:00:00 12.4 6 Sudoeste 15 Este 0 850.5 -1.9 50
2020-03-19 14:00:00 12.8 5 Sur 21 Este 0 851.3 -1.6 52
2020-03-19 13:00:00 12.3 9 Sudeste 23 Este 0 851.9 -1.2 55
2020-03-19 12:00:00 11.6 13 Este 23 Este 0 852.4 -0.7 58
2020-03-19 11:00:00 10.2 14 Este 22 Este 0 852.9 -0.2 62
2020-03-19 10:00:00 7.9 11 Este 15 Este 0 853.1 0 72
2020-03-19 09:00:00 5.5 5 Este 9 Este 0 853.1 -0.1 80
2020-03-19 08:00:00 2.6 6 Sudeste 12 Sudoeste 0 853.1 -0.2 91
2020-03-19 07:00:00 2.2 3 Sudeste 8 Sudeste 0 853.1 -0.5 89
2020-03-19 06:00:00 2.4 2 Sudeste 8 Sudeste 0 853.2 -0.9 88
2020-03-19 05:00:00 2.8 3 Noroeste 6 Este 0 853.3 -1.5 87
2020-03-19 04:00:00 5.5 3 Sudeste 10 Este 0 853.6 -1.5 79
2020-03-19 03:00:00 6.3 7 Este 18 Este 0 854.1 -1.3 79
2020-03-19 02:00:00 7 11 Este 19 Este 0 854.8 -0.9 76
2020-03-19 01:00:00 6.3 4 Este 10 Nordeste 0 855.1 -0.8 75
2020-03-19 00:00:00 5.9 4 Sudeste 12 Sudeste 0 855.4 -0.5 75
2020-03-18 23:00:00 6 3 Sudeste 9 Nordeste 0 855.7 0.1 75
2020-03-18 22:00:00 4.4 2 Sudeste 6 Nordeste 0 855.9 0.3 80
2020-03-18 21:00:00 4.8 2 Sur 10 Sur 0 855.9 0.4 79
2020-03-18 20:00:00 5.4 5 Oeste 9 Noroeste 0 855.6 0 78
2020-03-18 19:00:00 7.6 6 Oeste 13 Oeste 0 855.6 -0.2 75
2020-03-18 18:00:00 11.1 8 Oeste 11 Oeste 0 855.5 -0.5 58
2020-03-18 17:00:00 11.6 7 Oeste 15 Noroeste 0 855.6 -0.9 55
2020-03-18 16:00:00 12.4 10 Oeste 14 Oeste 0 855.8 -1.3 51
2020-03-18 15:00:00 13 7 Oeste 12 Oeste 0 856 -1.5 48
2020-03-18 14:00:00 14.4 5 Oeste 21 Este 0 856.5 -1.4 42
2020-03-18 13:00:00 12.1 13 Este 22 Este 0 857.1 -0.8 57
2020-03-18 12:00:00 10.8 9 Nordeste 19 Nordeste 0 857.5 -0.3 64
2020-03-18 11:00:00 9.3 8 Este 16 Este 0 857.9 0.1 70
2020-03-18 10:00:00 4.5 3 Sudoeste 8 Sudeste 0 857.9 0 85
2020-03-18 09:00:00 1.9 5 Este 16 Sur 0 857.8 0.3 94
2020-03-18 08:00:00 2.3 9 Sudeste 15 Sur 0 857.8 0.2 93
2020-03-18 07:00:00 2.6 9 Sur 14 Sur 0 857.9 0 93
2020-03-18 06:00:00 2.5 6 Sudeste 10 Sudeste 0 857.5 -0.8 91
2020-03-18 05:00:00 2.7 7 Sudeste 12 Sudeste 0 857.6 -0.8 93
2020-03-18 04:00:00 1.9 3 Sudeste 6 Sudeste 0 857.9 -0.8 91
2020-03-18 03:00:00 3.2 2 Sudeste 9 Este 0 858.3 -0.7 90
2020-03-18 02:00:00 3.7 8 Este 15 Este 0 858.4 -0.7 89
2020-03-18 01:00:00 4.2 8 Sudeste 14 Este 0 858.7 -0.4 89
2020-03-18 00:00:00 4.3 9 Este 19 Este 0 859 0.4 86
2020-03-17 23:00:00 4.6 10 Este 27 Este 0 859.1 1.1 85
2020-03-17 22:00:00 5.8 11 Sudeste 27 Este 0 859.1 1.5 80
2020-03-17 21:00:00 5.1 9 Sudeste 19 Sudeste 0 858.6 1.3 82
2020-03-17 20:00:00 5.4 10 Este 23 Sudeste 0 858 1 78
2020-03-17 19:00:00 6.8 9 Este 32 Sudeste 0 857.6 0.9 72
2020-03-17 18:00:00 7.5 14 Sudeste 25 Sudeste 0 857.3 0.4 71
2020-03-17 17:00:00 6.7 13 Norte 24 Sudeste 0 857 -0.1 70
2020-03-17 16:00:00 9.8 10 Sudeste 25 Sudeste 0 856.7 -0.4 62
2020-03-17 15:00:00 8.7 16 Sudeste 23 Este 0 856.9 -0.2 64
2020-03-17 14:00:00 8.6 14 Sudeste 23 Sudeste 0 857.1 0.2 66
2020-03-17 13:00:00 8.8 16 Este 24 Sudeste 0 857.1 0.7 64
2020-03-17 12:00:00 8.4 15 Este 29 Sudeste 0.8 857.1 0.8 66
2020-03-17 11:00:00 6.7 13 Este 18 Este 0.4 856.9 0.9 80
2020-03-17 10:00:00 4.5 6 Este 10 Este 0.4 856.4 1 93
2020-03-17 09:00:00 1.9 8 Este 22 Sudeste 0 856.3 1.7 93
2020-03-17 08:00:00 -3.8 11 Noroeste 20 Noroeste 0 856 1.7 93
2020-03-17 07:00:00 -3.1 15 Noroeste 22 Oeste 0 855.4 0.9 94
2020-03-17 06:00:00 -2.9 9 Oeste 20 Noroeste 0 854.6 -0.3 94
2020-03-17 05:00:00 -2.2 20 Oeste 24 Oeste 0 854.3 -0.5 93
2020-03-17 04:00:00 -2.4 4 Oeste 19 Oeste 0 854.5 -0.1 92
2020-03-17 03:00:00 -1.7 13 Oeste 23 Norte 0 854.9 0 94
2020-03-17 02:00:00 -1.8 12 Oeste 25 Oeste 0 854.8 0.2 92
2020-03-17 01:00:00 -1.6 15 Oeste 27 Oeste 0 854.6 0.4 92
2020-03-17 00:00:00 -1 13 Noroeste 40 Oeste 0 854.9 1.7 89
2020-03-16 23:00:00 -1.4 23 Noroeste 37 Noroeste 0 854.6 1.8 88
2020-03-16 22:00:00 -1.4 17 Noroeste 40 Noroeste 0 854.2 2.6 92
2020-03-16 21:00:00 -1.2 20 Noroeste 40 Noroeste 0 853.2 2.2 91
2020-03-16 20:00:00 -1.1 17 Noroeste 42 Noroeste 0 852.8 1.7 91
2020-03-16 19:00:00 -0.9 23 Noroeste 45 Noroeste 0 851.6 1 90
2020-03-16 18:00:00 -1 20 Oeste 53 Noroeste 0 851 1.1 91
2020-03-16 17:00:00 -0.9 13 Noroeste 57 Oeste 0 851.1 1.1 89
2020-03-16 16:00:00 -1.3 28 Noroeste 57 Noroeste 0 850.6 0.7 86
2020-03-16 15:00:00 -0.7 31 Noroeste 57 Noroeste 0 849.9 0.5 88
2020-03-16 14:00:00 -0.7 28 Noroeste 51 Noroeste 0 850 1.3 88
2020-03-16 13:00:00 -1 19 Noroeste 50 Noroeste 0 849.9 1.5 90
2020-03-16 12:00:00 -1.7 26 Noroeste 64 Noroeste 0 849.4 1.8 92
2020-03-16 11:00:00 -1.4 27 Noroeste 70 Noroeste 0 848.7 1.9 88
2020-03-16 10:00:00 -2.2 22 Norte 64 Noroeste 0 848.4 2.6 91
2020-03-16 09:00:00 -2.4 30 Noroeste 65 Noroeste 0 847.6 2.1 90
2020-03-16 08:00:00 -2.6 21 Noroeste 89 Noroeste 0 846.8 2 91
2020-03-16 07:00:00 -2.7 34 Noroeste 71 Noroeste 0 845.8 1.3 91
2020-03-16 06:00:00 -2.9 25 Noroeste 65 Noroeste 0 845.5 0.8 90
2020-03-16 05:00:00 -2.9 23 Noroeste 115 Sur 0 844.8 0.6 92
2020-03-16 04:00:00 -2.8 26 Noroeste 80 Noroeste 0 844.5 0.2 92
2020-03-16 03:00:00 -3.1 24 Noroeste 59 Noroeste 0.2 844.7 0.3 92
2020-03-16 02:00:00 -3.3 23 Oeste 45 Noroeste 0 844.2 0 93
2020-03-16 01:00:00 -3.2 21 Noroeste -- -- 0 844.3 0.3 92
2020-03-16 00:00:00 -3.4 23 Noroeste -- -- 0 844.4 0.7 93
2020-03-15 23:00:00 -3.2 -- -- -- -- 0 844.2 0.7 93
2020-03-15 22:00:00 -2.8 20 Noroeste 35 Oeste 0 844 0.4 93
2020-03-15 21:00:00 -2.5 18 Noroeste 43 Oeste 0 843.7 0.2 93
2020-03-15 20:00:00 -2.3 33 Oeste 44 Oeste 0 843.5 0.2 93
2020-03-15 19:00:00 -0.9 20 Noroeste 37 Noroeste 0 843.6 0.2 93
2020-03-15 18:00:00 0.4 17 Noroeste 31 Noroeste 0.2 843.5 0.2 94
2020-03-15 17:00:00 2.2 17 Noroeste 28 Noroeste 0 843.3 -0.4 93
2020-03-15 16:00:00 4.7 14 Noroeste 40 Oeste 0 843.4 -1 78
2020-03-15 15:00:00 7.3 29 Oeste 38 Oeste 0 843.3 -1.5 69
2020-03-15 14:00:00 11.2 15 Sudeste 38 Sudeste 0 843.7 -1.7 26
2020-03-15 13:00:00 10.8 12 Sur 32 Sudeste 0 844.4 -1.4 25
2020-03-15 12:00:00 9.8 11 Sur 33 Este 0 844.8 -1.2 32
2020-03-15 11:00:00 9.4 15 Sudeste 28 Sudeste 0 845.4 -1.2 42
2020-03-15 10:00:00 8.4 10 Este 30 Este 0 845.8 -1.2 40
2020-03-15 09:00:00 4.8 21 Este 28 Este 0 846 -1.2 54
2020-03-15 08:00:00 2 2 Este 15 Nordeste 0 846.6 -1 64
2020-03-15 07:00:00 1.8 2 Sudeste 14 Nordeste 0 847 -1.3 63
2020-03-15 06:00:00 1.5 6 Este 16 Nordeste 0 847.2 -1.8 64
2020-03-15 05:00:00 2.4 9 Este 19 Nordeste 0 847.6 -1.9 62
2020-03-15 04:00:00 3.4 8 Norte 22 Nordeste 0 848.3 -2 59
2020-03-15 03:00:00 2.9 5 Oeste 28 Este 0 849 -1.7 63
2020-03-15 02:00:00 3.4 13 Este 21 Este 0 849.5 -1.5 62
2020-03-15 01:00:00 1.8 2 Oeste 17 Este 0 850.3 -1.1 69
2020-03-15 00:00:00 3 10 Este 17 Este 0 850.7 -0.9 65
2020-03-14 23:00:00 1.7 3 Este 6 Este 0 851 -0.6 69
2020-03-14 22:00:00 1.8 3 Oeste 8 Oeste 0 851.4 0 71
2020-03-14 21:00:00 2.4 3 Oeste 6 Noroeste 0 851.6 0.3 72
2020-03-14 20:00:00 3.9 2 Oeste 12 Oeste 0 851.6 0.2 68
2020-03-14 19:00:00 7.1 12 Oeste 19 Oeste 0 851.4 -0.3 62
2020-03-14 18:00:00 9.9 17 Oeste 24 Oeste 0 851.3 -0.8 45
2020-03-14 17:00:00 11.5 18 Oeste 24 Oeste 0 851.4 -1.2 29
2020-03-14 16:00:00 11.7 19 Oeste 27 Oeste 0 851.7 -1.3 22
2020-03-14 15:00:00 11.2 19 Oeste 29 Oeste 0 852.1 -1.2 23
2020-03-14 14:00:00 11.1 17 Oeste 27 Noroeste 0 852.6 -0.9 23
2020-03-14 13:00:00 10.3 17 Oeste 24 Oeste 0 853 -0.4 22
2020-03-14 12:00:00 9.3 16 Oeste 25 Oeste 0 853.3 0.2 19
2020-03-14 11:00:00 8.7 16 Oeste 26 Oeste 0 853.5 0.6 21
2020-03-14 10:00:00 7.6 14 Oeste 23 Noroeste 0 853.4 0.9 22
2020-03-14 09:00:00 4.8 9 Noroeste 13 Noroeste 0 853.1 0.8 37
2020-03-14 08:00:00 -0.9 4 Oeste 8 Noroeste 0 852.9 0.7 58
2020-03-14 07:00:00 -0.5 2 Oeste 8 Oeste 0 852.5 0.1 52
2020-03-14 06:00:00 0.3 6 Oeste 16 Oeste 0 852.3 -0.5 41
2020-03-14 05:00:00 0.2 9 Noroeste 18 Oeste 0 852.2 -0.8 40
2020-03-14 04:00:00 0 8 Oeste 14 Oeste 0 852.4 -0.7 39
2020-03-14 03:00:00 0.5 8 Oeste 16 Oeste 0 852.8 -0.5 41
2020-03-14 02:00:00 0.5 9 Oeste 16 Oeste 0 853 -0.3 45
2020-03-14 01:00:00 1.5 13 Oeste 20 Oeste 0 853.1 0 47
2020-03-14 00:00:00 1 12 Oeste 21 Noroeste 0 853.3 0.6 61
2020-03-13 23:00:00 -0.2 17 Oeste 28 Oeste 0 853.3 1.1 94
2020-03-13 22:00:00 0.8 3 Nordeste 17 Oeste 0 853.1 1.2 67
2020-03-13 21:00:00 0.9 14 Oeste 28 Oeste 0 852.7 0.9 93
2020-03-13 20:00:00 1.4 11 Oeste 18 Oeste 0 852.2 0.7 63
2020-03-13 19:00:00 2.5 3 Oeste 27 Oeste 0 851.9 -0.4 93
2020-03-13 18:00:00 3.2 19 Oeste 41 Oeste 0 851.8 -0.7 92
2020-03-13 17:00:00 3.9 24 Oeste 33 Oeste 0 851.5 -1.3 91
2020-03-13 16:00:00 3.8 21 Oeste 30 Oeste 0 852.3 -0.5 91
2020-03-13 15:00:00 4 22 Oeste 32 Noroeste 0 852.5 -0.4 91
2020-03-13 14:00:00 3.5 22 Oeste 32 Oeste 0 852.8 -0.1 92
2020-03-13 13:00:00 4.3 19 Oeste 27 Oeste 0 852.8 0.1 93
2020-03-13 12:00:00 3.5 19 Oeste 26 Oeste 0 852.9 0.5 94
2020-03-13 11:00:00 2.5 17 Oeste 24 Oeste 0 852.9 0.4 94
2020-03-13 10:00:00 1.6 14 Oeste 20 Oeste 0 852.7 0.1 95
2020-03-13 09:00:00 1.3 0 Calma 9 Oeste 0 852.4 -0.3 95
2020-03-13 08:00:00 0.1 3 Oeste 11 Oeste 0 852.5 -0.2 95
2020-03-13 07:00:00 0.8 2 Oeste 13 Oeste 0 852.6 -0.3 95
2020-03-13 06:00:00 1 6 Noroeste 16 Oeste 0 852.7 -0.6 95
2020-03-13 05:00:00 1.1 11 Oeste 17 Oeste 0 852.7 -0.8 95
2020-03-13 04:00:00 1.5 11 Oeste 20 Oeste 0 852.9 -0.8 95
2020-03-13 03:00:00 1.7 11 Oeste 17 Oeste 0 853.3 -0.7 95
2020-03-13 02:00:00 1.9 13 Oeste 17 Oeste 0 853.5 -0.5 95
2020-03-13 01:00:00 2.2 9 Oeste 15 Noroeste 0 853.7 -0.2 95
2020-03-13 00:00:00 2.3 9 Oeste 15 Oeste 0 854 0.1 95
2020-03-12 23:00:00 2.6 8 Oeste 15 Oeste 0 854 0.2 94
2020-03-12 22:00:00 2.8 9 Oeste 18 Oeste 0 853.9 0.6 94
2020-03-12 21:00:00 2.9 10 Noroeste 16 Noroeste 0 853.9 0.8 94
2020-03-12 20:00:00 3 13 Noroeste 22 Noroeste 0 853.8 0.9 94
2020-03-12 19:00:00 3.3 13 Oeste 21 Oeste 0 853.3 0.4 94
2020-03-12 18:00:00 3.7 16 Oeste 25 Oeste 0 853.1 0 94
2020-03-12 17:00:00 4 17 Oeste 27 Oeste 0 852.9 -0.6 94
2020-03-12 16:00:00 5.3 18 Oeste 25 Oeste 0 852.9 -0.8 94
2020-03-12 15:00:00 5.6 20 Oeste 32 Oeste 0 853.1 -0.6 94
2020-03-12 14:00:00 5.6 22 Oeste 33 Oeste 0 853.5 -0.3 94
2020-03-12 13:00:00 5.8 23 Noroeste 33 Oeste 0 853.7 0.1 94
2020-03-12 12:00:00 5.7 21 Oeste 30 Oeste 0 853.7 0.3 94
2020-03-12 11:00:00 5.3 21 Oeste 28 Oeste 0 853.8 0.9 94
2020-03-12 10:00:00 5.1 20 Oeste 25 Oeste 0 853.6 0.7 94
2020-03-12 09:00:00 3.9 13 Oeste 25 Oeste 0 853.4 0.4 94
2020-03-12 08:00:00 2.5 7 Noroeste 21 Noroeste 0 852.9 -0.2 94
2020-03-12 07:00:00 2.7 10 Noroeste 18 Noroeste 0 852.9 -0.7 94
2020-03-12 06:00:00 2.6 8 Noroeste 21 Oeste 0 853 -1.1 93
2020-03-12 05:00:00 3.3 7 Oeste 14 Noroeste 0 853.1 -1 84
2020-03-12 04:00:00 5.9 3 Este 8 Noroeste 0 853.6 -0.9 67
2020-03-12 03:00:00 5.5 2 Sur 8 Noroeste 0 854.1 -0.6 70
2020-03-12 02:00:00 6.5 3 Sur 12 Noroeste 0 854.1 -0.7 68
2020-03-12 01:00:00 6.7 3 Oeste 12 Oeste 0 854.5 -0.4 66
2020-03-12 00:00:00 9.9 6 Oeste 23 Sur 0 854.7 -0.3 56
2020-03-11 23:00:00 10.9 8 Sudoeste 20 Sudoeste 0 854.8 -0.2 53
2020-03-11 22:00:00 11.6 7 Sudoeste 17 Sudoeste 0 854.9 0.1 52
2020-03-11 21:00:00 11.2 10 Sur 16 Sur 0 855 0.3 53
2020-03-11 20:00:00 8.6 3 Norte 14 Oeste 0 855 0.4 63
2020-03-11 19:00:00 13.4 10 Sur 21 Sudoeste 0 854.8 0.2 44
2020-03-11 18:00:00 15.2 10 Noroeste 26 Oeste 0 854.7 -0.2 47
2020-03-11 17:00:00 17.5 8 Oeste 36 Sudoeste 0 854.6 -0.8 31
2020-03-11 16:00:00 17.1 17 Oeste 34 Oeste 0 854.6 -1.4 29
2020-03-11 15:00:00 17.6 11 Sur 33 Oeste 0 854.9 -1.1 27
2020-03-11 14:00:00 17 9 Oeste 28 Sudeste 0 855.4 -0.9 27
2020-03-11 13:00:00 15.1 18 Este 40 Este 0 856 -0.3 24
2020-03-11 12:00:00 13.2 23 Este 32 Sudeste 0 856 -0.1 31
2020-03-11 11:00:00 12.8 18 Este 26 Este 0 856.3 0.1 38
2020-03-11 10:00:00 10.6 13 Este 17 Este 0 856.3 0.3 48
2020-03-11 09:00:00 6.3 3 Este 7 Oeste 0 856.1 -0.1 65
2020-03-11 08:00:00 2.7 6 Oeste 10 Oeste 0 856.2 0 73
2020-03-11 07:00:00 1.9 5 Oeste 12 Noroeste 0 856 -0.5 75
2020-03-11 06:00:00 3.2 8 Noroeste 11 Oeste 0 856.2 -0.8 70
2020-03-11 05:00:00 3.4 8 Noroeste 12 Oeste 0 856.2 -0.9 66
2020-03-11 04:00:00 4.3 4 Sudoeste 13 Noroeste 0 856.5 -0.9 58
2020-03-11 03:00:00 3.9 5 Oeste 10 Noroeste 0 857 -0.4 53
2020-03-11 02:00:00 3.8 3 Sudoeste 11 Noroeste 0 857.1 -0.4 51
2020-03-11 01:00:00 2.1 8 Oeste 9 Noroeste 0 857.4 0 64
2020-03-11 00:00:00 3.2 3 Oeste 10 Oeste 0 857.4 0 65